Time;durP1;ratioP1;P1;durP2;ratioP2;P2;SDS_P1;SDS_P2;PMS_P1;PMS_P2;Temp;Humidity;BMP_temperature;BMP_pressure;BME280_temperature;BME280_humidity;BME280_pressure;Samples;Min_cycle;Max_cycle;Signal;HPM_P1;HPM_P2
2021/01/09 00:02:16;;;;;;;20.88;10.57;;;4.00;99.90;;;;;;5011798;28;20227;-76
2021/01/09 00:04:43;;;;;;;21.88;12.13;;;4.00;99.90;;;;;;5010176;28;20755;-77
2021/01/09 00:07:11;;;;;;;26.02;11.90;;;4.00;99.90;;;;;;5011423;28;20212;-76
2021/01/09 00:09:38;;;;;;;22.30;11.95;;;4.00;99.90;;;;;;5010976;28;20208;-77
2021/01/09 00:12:12;;;;;;;23.52;12.02;;;4.00;99.90;;;;;;5027543;28;20197;-76
2021/01/09 00:14:38;;;;;;;21.38;10.20;;;4.00;99.90;;;;;;5011060;28;20208;-76
2021/01/09 00:17:05;;;;;;;22.98;10.73;;;3.90;99.90;;;;;;5012496;28;20196;-75
2021/01/09 00:19:31;;;;;;;18.48;10.07;;;3.90;99.90;;;;;;5009506;28;20208;-76
2021/01/09 00:21:58;;;;;;;22.52;10.88;;;3.90;99.90;;;;;;5011657;28;20200;-75
2021/01/09 00:24:26;;;;;;;22.63;11.55;;;3.80;99.90;;;;;;5009089;28;20204;-76
2021/01/09 00:26:53;;;;;;;19.38;10.48;;;3.80;99.90;;;;;;5010355;28;20721;-75
2021/01/09 00:29:20;;;;;;;20.75;9.95;;;3.80;99.90;;;;;;5011182;28;20208;-75
2021/01/09 00:31:47;;;;;;;18.55;9.30;;;3.80;99.90;;;;;;5011584;28;20196;-76
2021/01/09 00:34:13;;;;;;;17.90;9.57;;;3.80;99.90;;;;;;5010658;28;20236;-76
2021/01/09 00:36:46;;;;;;;19.25;10.07;;;3.70;99.90;;;;;;5009550;28;20197;-76
2021/01/09 00:39:14;;;;;;;22.02;10.60;;;3.70;99.90;;;;;;5026245;28;20703;-76
2021/01/09 00:41:40;;;;;;;18.00;9.60;;;3.70;99.90;;;;;;5011970;28;20204;-76
2021/01/09 00:44:07;;;;;;;19.25;10.00;;;3.70;99.90;;;;;;5010904;28;20205;-76
2021/01/09 00:46:35;;;;;;;23.88;10.85;;;3.70;99.90;;;;;;5026875;28;20721;-77
2021/01/09 00:49:02;;;;;;;21.58;9.90;;;3.70;99.90;;;;;;5010138;28;20263;-76
2021/01/09 00:51:28;;;;;;;16.70;9.68;;;3.70;99.90;;;;;;5011471;28;20225;-76
2021/01/09 00:53:54;;;;;;;17.38;9.45;;;3.70;99.90;;;;;;5008666;28;20230;-76
2021/01/09 00:56:21;;;;;;;18.02;9.60;;;3.60;99.90;;;;;;5011799;28;20665;-76
2021/01/09 00:58:48;;;;;;;19.48;9.73;;;3.60;99.90;;;;;;5008799;28;20205;-76
2021/01/09 01:01:14;;;;;;;18.88;9.80;;;3.60;99.90;;;;;;5010598;28;20596;-77
2021/01/09 01:03:42;;;;;;;15.00;8.38;;;3.60;99.90;;;;;;5009729;28;20660;-76
2021/01/09 01:06:09;;;;;;;17.02;8.65;;;3.60;99.90;;;;;;5011647;28;20254;-76
2021/01/09 01:08:35;;;;;;;12.52;7.93;;;3.60;99.90;;;;;;5009378;28;20718;-77
2021/01/09 01:11:02;;;;;;;14.45;6.68;;;3.60;99.90;;;;;;5010925;28;20542;-76
2021/01/09 01:13:28;;;;;;;13.88;6.85;;;3.60;99.90;;;;;;5008958;28;20208;-76
2021/01/09 01:15:55;;;;;;;11.20;6.07;;;3.60;99.90;;;;;;5011177;28;20254;-75
2021/01/09 01:18:21;;;;;;;12.77;7.22;;;3.60;99.90;;;;;;5009750;28;20661;-76
2021/01/09 01:20:49;;;;;;;12.95;7.38;;;3.60;99.90;;;;;;5007350;28;20204;-76
2021/01/09 01:23:15;;;;;;;11.70;7.53;;;3.50;99.90;;;;;;5009861;28;20205;-76
2021/01/09 01:25:42;;;;;;;13.43;6.85;;;3.60;99.90;;;;;;5010981;28;20200;-77
2021/01/09 01:28:08;;;;;;;14.85;7.47;;;3.60;99.90;;;;;;5007277;28;20221;-76
2021/01/09 01:30:35;;;;;;;13.70;7.30;;;3.50;99.90;;;;;;5011138;28;20677;-76
2021/01/09 01:33:01;;;;;;;13.18;8.00;;;3.50;99.90;;;;;;5009457;28;20262;-76
2021/01/09 01:35:28;;;;;;;15.25;8.05;;;3.50;99.90;;;;;;5011268;28;20251;-75
2021/01/09 01:37:55;;;;;;;14.55;7.65;;;3.50;99.90;;;;;;5006297;28;20228;-75
2021/01/09 01:40:24;;;;;;;13.48;7.18;;;3.50;99.90;;;;;;5011029;28;20201;-77
2021/01/09 01:42:51;;;;;;;18.83;8.32;;;3.50;99.90;;;;;;5009437;28;20251;-75
2021/01/09 01:45:20;;;;;;;16.70;7.90;;;3.50;99.90;;;;;;4999946;28;20254;-75
2021/01/09 01:47:47;;;;;;;12.68;7.38;;;3.50;99.90;;;;;;4997264;28;20700;-76
2021/01/09 01:50:15;;;;;;;13.07;7.55;;;3.50;99.90;;;;;;5010554;28;20197;-76
2021/01/09 01:52:41;;;;;;;14.52;7.88;;;3.40;99.90;;;;;;5008191;28;20255;-75
2021/01/09 01:55:10;;;;;;;16.02;8.23;;;3.40;99.90;;;;;;5009747;28;20209;-76
2021/01/09 01:57:36;;;;;;;14.73;8.75;;;3.40;99.90;;;;;;5009207;28;20268;-76
2021/01/09 02:00:05;;;;;;;18.13;9.40;;;3.40;99.90;;;;;;5008799;28;20203;-76
2021/01/09 02:02:38;;;;;;;13.70;8.07;;;3.40;99.90;;;;;;5003792;28;20212;-77
2021/01/09 02:05:06;;;;;;;14.50;7.38;;;3.40;99.90;;;;;;5010671;28;20574;-77
2021/01/09 02:07:41;;;;;;;13.52;7.57;;;3.40;99.90;;;;;;5008609;28;20220;-76
2021/01/09 02:10:10;;;;;;;14.68;8.75;;;3.40;99.90;;;;;;5009650;28;20196;-76
2021/01/09 02:12:41;;;;;;;15.38;8.25;;;3.40;99.90;;;;;;5022953;28;20673;-76
2021/01/09 02:15:09;;;;;;;14.85;7.82;;;3.40;99.90;;;;;;5010262;28;20209;-76
2021/01/09 02:17:36;;;;;;;14.10;7.07;;;3.40;99.90;;;;;;5009207;28;20196;-76
2021/01/09 02:20:04;;;;;;;15.32;7.55;;;3.40;99.90;;;;;;5007675;28;20193;-76
2021/01/09 02:22:39;;;;;;;15.82;7.75;;;3.40;99.90;;;;;;5008731;28;20666;-76
2021/01/09 02:25:07;;;;;;;17.88;8.07;;;3.40;99.90;;;;;;5008229;28;20199;-76
2021/01/09 02:27:33;;;;;;;14.98;7.90;;;3.30;99.90;;;;;;5009353;28;20680;-76
2021/01/09 02:30:05;;;;;;;14.07;7.95;;;3.30;99.90;;;;;;5007621;28;20227;-77
2021/01/09 02:32:41;;;;;;;14.07;7.57;;;3.30;99.90;;;;;;5009558;28;20196;-77
2021/01/09 02:35:10;;;;;;;15.80;7.28;;;3.30;99.90;;;;;;5009556;28;20231;-77
2021/01/09 02:37:37;;;;;;;15.23;7.10;;;3.30;99.90;;;;;;5023994;28;20200;-76
2021/01/09 02:40:06;;;;;;;10.60;6.63;;;3.30;99.90;;;;;;5009732;28;20219;-77
2021/01/09 02:42:32;;;;;;;11.20;6.28;;;3.30;99.90;;;;;;5006586;28;20325;-76
2021/01/09 02:44:59;;;;;;;11.82;6.55;;;3.30;99.90;;;;;;5009734;28;20208;-77
2021/01/09 02:47:26;;;;;;;13.50;6.72;;;3.20;99.90;;;;;;5009933;28;20224;-77
2021/01/09 02:49:52;;;;;;;15.80;6.47;;;3.20;99.90;;;;;;5014074;28;20707;-77
2021/01/09 02:52:18;;;;;;;13.38;6.97;;;3.20;99.90;;;;;;5014361;28;20524;-75
2021/01/09 02:54:46;;;;;;;12.90;7.13;;;3.20;99.90;;;;;;5009956;28;20565;-76
2021/01/09 02:57:12;;;;;;;12.68;6.90;;;3.20;99.90;;;;;;5013915;28;20223;-77
2021/01/09 02:59:38;;;;;;;11.15;6.63;;;3.20;99.90;;;;;;5011684;28;20200;-76
2021/01/09 03:02:05;;;;;;;13.27;5.93;;;3.20;99.90;;;;;;5010390;28;20197;-76
2021/01/09 03:04:31;;;;;;;15.07;6.20;;;3.10;99.90;;;;;;5011017;28;20200;-75
2021/01/09 03:06:57;;;;;;;14.02;6.68;;;3.10;99.90;;;;;;5011054;28;20747;-76
2021/01/09 03:09:24;;;;;;;12.52;6.25;;;3.10;99.90;;;;;;5009241;28;20580;-76
2021/01/09 03:11:51;;;;;;;14.57;6.60;;;3.10;99.90;;;;;;5012974;28;20204;-77
2021/01/09 03:14:17;;;;;;;13.90;6.13;;;3.10;99.90;;;;;;5009473;28;20540;-75
2021/01/09 03:16:44;;;;;;;12.70;6.15;;;3.10;99.90;;;;;;5013026;28;20669;-77
2021/01/09 03:19:10;;;;;;;13.80;6.57;;;3.10;99.90;;;;;;5010099;28;20299;-76
2021/01/09 03:21:37;;;;;;;11.43;6.47;;;3.10;99.90;;;;;;5011198;28;20208;-76
2021/01/09 03:24:03;;;;;;;13.60;6.53;;;3.10;99.90;;;;;;5010687;28;20215;-76
2021/01/09 03:26:30;;;;;;;8.77;5.63;;;3.10;99.90;;;;;;5013498;28;20196;-77
2021/01/09 03:28:58;;;;;;;9.38;5.80;;;3.10;99.90;;;;;;5009510;28;20228;-76
2021/01/09 03:31:24;;;;;;;13.02;5.93;;;3.10;99.90;;;;;;5011431;28;20197;-76
2021/01/09 03:33:50;;;;;;;9.18;5.70;;;3.10;99.90;;;;;;5009445;28;20240;-76
2021/01/09 03:36:17;;;;;;;12.70;5.63;;;3.00;99.90;;;;;;5011477;28;20219;-76
2021/01/09 03:38:43;;;;;;;12.07;5.80;;;3.00;99.90;;;;;;5009075;28;20567;-77
2021/01/09 03:41:10;;;;;;;10.48;6.28;;;3.00;99.90;;;;;;5011120;28;20632;-77
2021/01/09 03:43:36;;;;;;;12.48;5.70;;;3.00;99.90;;;;;;5010728;28;20211;-76
2021/01/09 03:46:03;;;;;;;12.35;5.65;;;3.00;99.90;;;;;;5012318;28;20204;-76
2021/01/09 03:48:30;;;;;;;11.20;6.40;;;3.00;99.90;;;;;;5010612;28;20610;-76
2021/01/09 03:50:56;;;;;;;11.07;5.80;;;2.90;99.90;;;;;;5012271;28;20891;-76
2021/01/09 03:53:23;;;;;;;12.23;7.25;;;2.90;99.90;;;;;;5010834;28;20209;-77
2021/01/09 03:55:49;;;;;;;15.77;5.57;;;2.90;99.90;;;;;;5011657;28;20207;-76
2021/01/09 03:58:16;;;;;;;10.18;5.57;;;2.90;99.90;;;;;;5008986;28;20203;-76
2021/01/09 04:00:42;;;;;;;10.02;5.10;;;3.00;99.90;;;;;;5009800;28;20205;-77
2021/01/09 04:03:09;;;;;;;15.10;6.23;;;3.00;99.90;;;;;;5009875;28;20291;-76
2021/01/09 04:05:36;;;;;;;9.05;5.25;;;3.00;99.90;;;;;;5009808;28;20196;-77
2021/01/09 04:08:03;;;;;;;11.77;5.70;;;3.00;99.90;;;;;;5009444;28;20216;-76
2021/01/09 04:10:29;;;;;;;11.25;5.65;;;3.00;99.90;;;;;;5012010;28;20209;-76
2021/01/09 04:12:55;;;;;;;11.25;5.38;;;3.00;99.90;;;;;;5009041;28;20208;-77
2021/01/09 04:15:22;;;;;;;9.05;4.88;;;3.00;99.90;;;;;;5011631;28;20196;-75
2021/01/09 04:17:48;;;;;;;11.85;5.82;;;3.00;99.90;;;;;;5009996;28;20197;-75
2021/01/09 04:20:15;;;;;;;11.07;5.53;;;3.00;99.90;;;;;;5010177;28;20568;-76
2021/01/09 04:22:42;;;;;;;13.23;5.53;;;3.00;99.90;;;;;;5009095;28;20212;-75
2021/01/09 04:25:09;;;;;;;12.30;5.68;;;3.00;99.90;;;;;;5010742;28;20192;-75
2021/01/09 04:27:36;;;;;;;11.60;5.32;;;3.00;99.90;;;;;;5008646;28;20270;-76
2021/01/09 04:30:02;;;;;;;10.05;5.18;;;3.00;99.90;;;;;;5011394;28;20718;-75
2021/01/09 04:32:29;;;;;;;9.68;5.47;;;3.00;99.90;;;;;;5009651;28;20235;-75
2021/01/09 04:34:56;;;;;;;9.25;4.93;;;3.00;99.90;;;;;;5010089;28;20677;-75
2021/01/09 04:37:23;;;;;;;10.35;5.10;;;3.00;99.90;;;;;;5011047;28;20185;-76
2021/01/09 04:39:50;;;;;;;9.30;4.97;;;3.00;99.90;;;;;;5009188;28;20572;-75
2021/01/09 04:42:16;;;;;;;10.02;5.10;;;3.00;99.90;;;;;;5011270;28;20864;-75
2021/01/09 04:44:43;;;;;;;12.70;5.22;;;2.90;99.90;;;;;;5008364;28;20208;-76
2021/01/09 04:47:10;;;;;;;12.77;5.83;;;2.90;99.90;;;;;;5011166;28;20212;-76
2021/01/09 04:49:38;;;;;;;10.27;5.20;;;2.90;99.90;;;;;;5008195;28;20236;-76
2021/01/09 04:52:06;;;;;;;11.40;5.95;;;2.90;99.90;;;;;;5010892;28;20227;-76
2021/01/09 04:54:34;;;;;;;13.63;5.40;;;2.90;99.90;;;;;;5008555;28;20212;-76
2021/01/09 04:57:01;;;;;;;12.52;4.93;;;2.90;99.90;;;;;;5010881;28;20208;-75
2021/01/09 04:59:27;;;;;;;8.88;5.47;;;2.90;99.90;;;;;;5006425;28;20748;-75
2021/01/09 05:01:53;;;;;;;12.05;5.55;;;2.90;99.90;;;;;;5008090;28;20215;-75
2021/01/09 05:04:21;;;;;;;13.48;6.05;;;2.90;99.90;;;;;;5009021;28;20247;-77
2021/01/09 05:06:48;;;;;;;13.30;6.38;;;2.90;99.90;;;;;;5011018;28;20591;-76
2021/01/09 05:09:16;;;;;;;17.52;5.47;;;2.90;99.90;;;;;;5007008;28;20279;-75
2021/01/09 05:11:43;;;;;;;13.77;5.32;;;2.90;99.90;;;;;;5010602;28;20242;-76
2021/01/09 05:14:10;;;;;;;11.38;6.30;;;3.00;99.90;;;;;;5009027;28;20204;-76
2021/01/09 05:16:38;;;;;;;12.02;5.43;;;3.00;99.90;;;;;;5009268;28;20200;-75
2021/01/09 05:19:05;;;;;;;9.30;5.03;;;2.90;99.90;;;;;;5022984;28;20204;-75
2021/01/09 05:21:35;;;;;;;9.77;4.95;;;2.90;99.90;;;;;;5010606;28;20691;-76
2021/01/09 05:24:03;;;;;;;11.80;5.35;;;2.90;99.90;;;;;;5009224;28;20365;-76
2021/01/09 05:26:30;;;;;;;11.57;5.53;;;2.90;99.90;;;;;;5008509;28;20287;-77
2021/01/09 05:28:59;;;;;;;10.65;5.70;;;3.00;99.90;;;;;;5008092;28;20228;-77
2021/01/09 05:31:27;;;;;;;14.63;6.13;;;2.90;99.90;;;;;;5009306;28;20213;-76
2021/01/09 05:33:54;;;;;;;20.08;8.52;;;3.00;99.90;;;;;;5009637;28;20235;-75
2021/01/09 05:36:22;;;;;;;14.73;6.38;;;3.00;99.90;;;;;;5010086;28;20219;-76
2021/01/09 05:38:50;;;;;;;14.20;6.97;;;3.00;99.90;;;;;;5008060;28;20251;-75
2021/01/09 05:41:18;;;;;;;10.15;5.78;;;3.00;99.90;;;;;;5007338;28;20215;-77
2021/01/09 05:43:48;;;;;;;11.93;5.32;;;3.00;99.90;;;;;;5008544;28;20192;-74
2021/01/09 05:46:16;;;;;;;15.00;6.35;;;2.90;99.90;;;;;;5010562;28;20213;-76
2021/01/09 05:48:42;;;;;;;17.75;8.73;;;2.90;99.90;;;;;;5008651;28;20224;-76
2021/01/09 05:51:12;;;;;;;22.48;8.85;;;2.90;99.90;;;;;;5009783;28;20207;-74
2021/01/09 05:53:41;;;;;;;16.15;7.47;;;2.80;99.90;;;;;;5008073;28;20232;-77
2021/01/09 05:56:10;;;;;;;12.35;6.18;;;2.80;99.90;;;;;;5006758;28;20606;-77
2021/01/09 05:58:36;;;;;;;10.88;5.68;;;2.80;99.90;;;;;;5009103;28;20200;-76
2021/01/09 06:01:07;;;;;;;12.05;5.70;;;2.80;99.90;;;;;;5010288;28;20673;-77
2021/01/09 06:03:42;;;;;;;12.30;5.85;;;2.80;99.90;;;;;;5007211;28;20254;-77
2021/01/09 06:06:22;;;;;;;10.93;5.55;;;2.80;99.90;;;;;;5009689;28;20200;-78
2021/01/09 06:08:53;;;;;;;11.73;5.25;;;2.70;99.90;;;;;;5007999;28;21798;-78
2021/01/09 06:11:29;;;;;;;15.33;5.43;;;2.70;99.90;;;;;;5008926;28;20213;-77
2021/01/09 06:13:58;;;;;;;14.25;5.30;;;2.70;99.90;;;;;;5008536;28;20200;-77
2021/01/09 06:16:26;;;;;;;13.60;5.40;;;2.70;99.90;;;;;;5010683;28;20203;-78
2021/01/09 06:18:54;;;;;;;11.55;5.13;;;2.60;99.90;;;;;;5012506;28;20193;-76
2021/01/09 06:21:21;;;;;;;14.48;5.32;;;2.70;99.90;;;;;;5012262;28;20766;-76
2021/01/09 06:23:47;;;;;;;15.52;5.43;;;2.60;99.90;;;;;;5008204;28;20212;-77
2021/01/09 06:26:15;;;;;;;9.20;4.38;;;2.60;99.90;;;;;;5010394;28;20568;-76
2021/01/09 06:28:46;;;;;;;12.50;5.57;;;2.60;99.90;;;;;;5008726;28;20227;-76
2021/01/09 06:31:18;;;;;;;11.98;4.97;;;2.60;99.90;;;;;;5009651;28;20211;-76
2021/01/09 06:33:47;;;;;;;14.10;5.30;;;2.60;99.90;;;;;;5007340;28;20215;-76
2021/01/09 06:36:17;;;;;;;14.77;5.97;;;2.60;99.90;;;;;;5009461;28;20205;-77
2021/01/09 06:38:46;;;;;;;11.63;5.43;;;2.60;99.90;;;;;;5007388;28;20567;-76
2021/01/09 06:41:15;;;;;;;18.67;6.13;;;2.60;99.90;;;;;;5009598;28;20207;-75
2021/01/09 06:43:46;;;;;;;13.15;6.68;;;2.60;99.90;;;;;;5007237;28;20208;-76
2021/01/09 06:46:25;;;;;;;14.38;5.30;;;2.60;99.90;;;;;;5025036;28;20636;-77
2021/01/09 06:48:52;;;;;;;14.77;5.60;;;2.60;99.90;;;;;;5008966;28;20908;-76
2021/01/09 06:51:39;;;;;;;15.18;6.05;;;2.50;99.90;;;;;;5009725;28;20199;-76
2021/01/09 06:54:45;;;;;;;14.93;5.83;;;2.50;99.90;;;;;;5006943;28;20212;-76
2021/01/09 06:57:15;;;;;;;11.20;5.47;;;2.50;99.90;;;;;;4967528;28;20211;-78
2021/01/09 06:59:43;;;;;;;15.95;5.82;;;2.50;99.90;;;;;;5007842;28;20208;-77
2021/01/09 07:02:24;;;;;;;12.73;4.47;;;2.50;99.90;;;;;;5006840;28;20276;-76
2021/01/09 07:05:01;;;;;;;14.03;4.77;;;2.40;99.90;;;;;;5009854;28;20204;-76
2021/01/09 07:07:33;;;;;;;12.73;4.70;;;2.40;99.90;;;;;;5010903;28;20211;-77
2021/01/09 07:10:18;;;;;;;11.63;4.45;;;2.40;99.90;;;;;;5009972;28;20201;-77
2021/01/09 07:12:55;;;;;;;7.72;4.35;;;2.40;99.90;;;;;;5011479;28;20217;-76
2021/01/09 07:15:22;;;;;;;9.88;4.82;;;2.40;99.90;;;;;;5011870;28;20209;-75
2021/01/09 07:17:52;;;;;;;8.88;5.05;;;2.40;99.90;;;;;;5008032;28;20747;-76
2021/01/09 07:20:20;;;;;;;12.48;5.03;;;2.40;99.90;;;;;;5009220;28;20204;-79
2021/01/09 07:22:53;;;;;;;13.50;4.85;;;2.40;99.90;;;;;;5008203;28;20271;-75
2021/01/09 07:25:30;;;;;;;12.75;5.20;;;2.40;99.90;;;;;;5007508;28;20200;-78
2021/01/09 07:27:58;;;;;;;13.10;6.88;;;2.40;99.90;;;;;;5008205;28;20204;-78
2021/01/09 07:30:27;;;;;;;11.13;6.22;;;2.30;99.90;;;;;;5007090;28;20506;-78
2021/01/09 07:32:54;;;;;;;12.80;6.40;;;2.30;99.90;;;;;;5013540;28;20566;-78
2021/01/09 07:35:26;;;;;;;11.10;5.60;;;2.30;99.90;;;;;;5016600;28;20232;-78
2021/01/09 07:37:57;;;;;;;17.67;5.17;;;2.30;99.90;;;;;;5012318;28;20197;-79
2021/01/09 07:40:24;;;;;;;14.03;4.67;;;2.30;99.90;;;;;;5011578;28;20201;-77
2021/01/09 07:42:53;;;;;;;10.93;4.80;;;2.30;99.90;;;;;;5011149;28;20206;-78
2021/01/09 07:45:22;;;;;;;10.13;4.35;;;2.40;99.90;;;;;;5011482;28;20204;-78
2021/01/09 07:47:49;;;;;;;11.27;4.35;;;2.40;99.90;;;;;;5012271;28;20213;-78
2021/01/09 07:50:18;;;;;;;12.40;5.68;;;2.40;99.90;;;;;;5010367;28;20218;-76
2021/01/09 07:52:45;;;;;;;18.95;5.70;;;2.40;99.90;;;;;;5011232;28;20201;-78
2021/01/09 07:55:17;;;;;;;16.65;6.50;;;2.50;99.90;;;;;;5011342;28;20208;-77
2021/01/09 07:57:45;;;;;;;14.43;5.65;;;2.50;99.90;;;;;;5008328;28;20747;-78
2021/01/09 08:00:17;;;;;;;9.00;5.13;;;2.50;99.90;;;;;;5011360;28;20197;-78
2021/01/09 08:02:46;;;;;;;15.88;5.20;;;2.50;99.90;;;;;;5011682;28;20200;-75
2021/01/09 08:05:19;;;;;;;11.73;5.38;;;2.50;99.90;;;;;;5010958;28;20205;-78
2021/01/09 08:07:47;;;;;;;11.82;4.93;;;2.60;99.90;;;;;;5009577;28;20619;-79
2021/01/09 08:10:26;;;;;;;15.75;5.53;;;2.60;99.90;;;;;;5012499;28;20615;-78
2021/01/09 08:12:55;;;;;;;17.77;5.03;;;2.60;99.90;;;;;;5009623;28;20586;-77
2021/01/09 08:15:21;;;;;;;11.40;4.90;;;2.70;99.90;;;;;;5011944;28;20195;-76
2021/01/09 08:17:48;;;;;;;13.43;5.50;;;2.70;99.90;;;;;;5011127;28;20271;-76
2021/01/09 08:20:18;;;;;;;13.35;5.55;;;2.70;99.90;;;;;;5009832;28;20205;-77
2021/01/09 08:22:58;;;;;;;10.70;4.95;;;2.70;99.90;;;;;;5008725;28;20192;-77
2021/01/09 08:25:27;;;;;;;16.95;6.10;;;2.80;99.90;;;;;;5024997;28;20205;-77
2021/01/09 08:28:00;;;;;;;19.77;6.85;;;2.80;99.90;;;;;;5003450;28;20213;-78
2021/01/09 08:30:29;;;;;;;17.02;6.35;;;2.80;99.90;;;;;;5010418;28;20575;-76
2021/01/09 08:33:09;;;;;;;22.30;6.70;;;2.80;99.90;;;;;;5010319;28;20249;-77
2021/01/09 08:35:38;;;;;;;67.40;28.23;;;2.80;99.90;;;;;;5009335;28;20323;-77
2021/01/09 08:38:06;;;;;;;57.20;24.30;;;2.90;99.90;;;;;;5007496;28;20723;-77
2021/01/09 08:40:33;;;;;;;26.20;11.07;;;2.90;99.90;;;;;;5011287;28;20211;-78
2021/01/09 08:43:03;;;;;;;22.95;8.27;;;2.90;99.90;;;;;;5008919;28;20196;-80
2021/01/09 08:45:47;;;;;;;22.08;6.25;;;2.90;99.90;;;;;;5013480;28;20231;-78
2021/01/09 08:48:19;;;;;;;18.85;6.65;;;3.00;99.90;;;;;;5013412;28;20311;-78
2021/01/09 08:51:05;;;;;;;31.92;9.75;;;3.00;99.90;;;;;;5014729;28;20255;-78
2021/01/09 08:53:38;;;;;;;18.98;6.85;;;3.00;99.90;;;;;;5007441;28;20208;-77
2021/01/09 08:56:08;;;;;;;19.88;5.63;;;3.10;99.90;;;;;;5009880;28;20271;-76
2021/01/09 08:58:37;;;;;;;19.85;6.75;;;3.10;99.90;;;;;;5007338;28;21010;-76
2021/01/09 09:01:07;;;;;;;15.23;5.20;;;3.20;99.90;;;;;;5007504;28;20578;-77
2021/01/09 09:03:36;;;;;;;15.38;5.05;;;3.30;99.90;;;;;;5007218;28;20204;-79
2021/01/09 09:06:07;;;;;;;15.88;4.55;;;3.40;99.90;;;;;;5010461;28;20216;-77
2021/01/09 09:08:35;;;;;;;17.73;5.10;;;3.40;99.90;;;;;;5009830;28;20619;-76
2021/01/09 09:11:03;;;;;;;9.68;4.28;;;3.50;99.90;;;;;;5010378;28;20208;-77
2021/01/09 09:13:31;;;;;;;13.18;5.75;;;3.60;99.90;;;;;;5010116;28;20211;-76
2021/01/09 09:15:58;;;;;;;18.25;5.15;;;3.60;99.90;;;;;;5009868;28;20197;-75
2021/01/09 09:18:33;;;;;;;17.05;4.82;;;3.70;99.90;;;;;;5007875;28;20197;-76
2021/01/09 09:20:59;;;;;;;16.48;7.47;;;3.70;99.90;;;;;;5010215;28;20200;-77
2021/01/09 09:23:26;;;;;;;15.77;6.38;;;3.80;99.90;;;;;;5009694;28;20204;-76
2021/01/09 09:26:04;;;;;;;15.95;5.38;;;3.80;99.90;;;;;;5011599;28;20262;-76
2021/01/09 09:28:31;;;;;;;20.05;6.05;;;3.80;99.90;;;;;;5008026;28;20250;-76
2021/01/09 09:30:57;;;;;;;20.02;5.40;;;3.90;99.90;;;;;;5009815;28;20243;-77
2021/01/09 09:33:28;;;;;;;17.88;5.15;;;3.90;99.90;;;;;;5010028;28;20270;-77
2021/01/09 09:36:07;;;;;;;12.70;5.20;;;4.00;99.90;;;;;;5009772;28;20611;-77
2021/01/09 09:38:33;;;;;;;21.52;6.20;;;4.00;99.90;;;;;;5022955;28;20208;-76
2021/01/09 09:41:06;;;;;;;14.15;5.32;;;4.10;99.90;;;;;;5008407;28;20569;-77
2021/01/09 09:43:33;;;;;;;22.15;6.00;;;4.10;99.90;;;;;;5009841;28;20211;-76
2021/01/09 09:46:01;;;;;;;14.40;5.78;;;4.10;99.90;;;;;;5011257;28;20203;-77
2021/01/09 09:48:29;;;;;;;19.45;5.72;;;4.20;99.90;;;;;;5009274;28;20306;-77
2021/01/09 09:51:03;;;;;;;13.50;4.35;;;4.20;99.90;;;;;;5011191;28;20207;-77
2021/01/09 09:53:33;;;;;;;9.15;3.00;;;4.30;99.90;;;;;;5009302;28;20219;-77
2021/01/09 09:56:13;;;;;;;8.32;2.22;;;4.30;99.90;;;;;;5009817;28;20670;-77
2021/01/09 09:58:41;;;;;;;10.82;1.88;;;4.40;99.90;;;;;;5003899;28;20672;-77
2021/01/09 10:01:18;;;;;;;13.13;2.17;;;4.50;99.90;;;;;;5007820;28;20212;-77
2021/01/09 10:03:45;;;;;;;8.80;1.35;;;4.50;99.90;;;;;;5007541;28;20657;-77
2021/01/09 10:06:11;;;;;;;8.85;1.38;;;4.60;99.90;;;;;;5011175;28;20200;-77
2021/01/09 10:08:38;;;;;;;9.95;1.30;;;4.60;99.90;;;;;;5008917;28;20209;-78
2021/01/09 10:11:05;;;;;;;9.02;1.58;;;4.70;99.90;;;;;;5010275;28;20192;-76
2021/01/09 10:13:33;;;;;;;12.88;4.40;;;4.70;99.90;;;;;;5008076;28;20661;-77
2021/01/09 10:16:01;;;;;;;11.98;2.40;;;4.70;99.90;;;;;;5011123;28;20250;-77
2021/01/09 10:18:29;;;;;;;8.68;1.52;;;4.80;99.90;;;;;;5008443;28;20536;-77
2021/01/09 10:20:56;;;;;;;4.50;1.50;;;4.80;99.90;;;;;;5010971;28;20211;-77
2021/01/09 10:23:23;;;;;;;6.78;1.52;;;4.80;99.90;;;;;;5009337;28;20211;-77
2021/01/09 10:25:49;;;;;;;11.63;1.75;;;4.90;99.90;;;;;;5009139;28;20203;-77
2021/01/09 10:28:16;;;;;;;6.45;1.58;;;4.90;99.90;;;;;;5009370;28;20216;-77
2021/01/09 10:30:42;;;;;;;13.23;1.80;;;4.90;99.90;;;;;;5010604;28;20603;-77
2021/01/09 10:33:10;;;;;;;16.70;2.20;;;5.00;99.90;;;;;;5007709;28;20200;-77
2021/01/09 10:35:37;;;;;;;14.82;1.58;;;5.00;99.90;;;;;;5010540;28;20275;-77
2021/01/09 10:38:03;;;;;;;8.32;1.60;;;5.10;99.90;;;;;;5009356;28;20200;-78
2021/01/09 10:40:29;;;;;;;10.95;1.60;;;5.10;99.90;;;;;;5010954;28;20204;-77
2021/01/09 10:42:56;;;;;;;9.32;1.70;;;5.20;99.90;;;;;;5008256;28;20208;-76
2021/01/09 10:45:22;;;;;;;10.80;1.40;;;5.30;99.90;;;;;;5010272;28;20203;-77
2021/01/09 10:47:48;;;;;;;16.17;1.30;;;5.30;99.90;;;;;;5008694;28;20216;-76
2021/01/09 10:50:16;;;;;;;7.03;1.52;;;5.40;99.90;;;;;;5009120;28;20201;-78
2021/01/09 10:52:42;;;;;;;5.82;1.20;;;5.50;99.90;;;;;;5009547;28;20589;-79
2021/01/09 10:55:09;;;;;;;7.95;1.17;;;5.50;99.90;;;;;;5010531;28;20959;-79
2021/01/09 10:57:36;;;;;;;8.85;1.52;;;5.60;99.90;;;;;;5007126;28;20204;-75
2021/01/09 11:00:03;;;;;;;4.25;1.50;;;5.60;99.90;;;;;;5009740;28;20574;-78
2021/01/09 11:02:30;;;;;;;6.00;1.10;;;5.70;99.90;;;;;;5009304;28;20211;-77
2021/01/09 11:04:56;;;;;;;5.60;1.10;;;5.70;99.90;;;;;;5007338;28;20204;-77
2021/01/09 11:07:23;;;;;;;4.97;0.90;;;5.70;99.90;;;;;;5012533;28;20201;-77
2021/01/09 11:09:49;;;;;;;8.57;1.52;;;5.70;99.90;;;;;;5011584;28;20223;-77
2021/01/09 11:12:16;;;;;;;3.95;1.00;;;5.80;99.90;;;;;;5013535;28;20208;-77
2021/01/09 11:14:43;;;;;;;7.28;1.17;;;5.80;99.90;;;;;;5011231;28;20212;-76
2021/01/09 11:17:09;;;;;;;2.78;1.10;;;5.80;99.90;;;;;;5010409;28;20262;-76
2021/01/09 11:19:36;;;;;;;5.20;0.90;;;5.90;99.90;;;;;;5009864;28;20204;-76
2021/01/09 11:22:02;;;;;;;6.32;1.20;;;5.90;99.90;;;;;;5010703;28;20259;-77
2021/01/09 11:24:31;;;;;;;2.83;0.98;;;5.90;99.90;;;;;;5012686;28;20569;-76
2021/01/09 11:27:05;;;;;;;16.98;1.73;;;5.90;99.90;;;;;;5013486;28;20209;-75
2021/01/09 11:29:31;;;;;;;7.70;1.48;;;6.00;99.90;;;;;;5012384;28;20220;-77
2021/01/09 11:31:59;;;;;;;6.28;1.23;;;6.00;99.90;;;;;;5013682;28;20188;-78
2021/01/09 11:34:25;;;;;;;4.45;0.88;;;6.10;99.90;;;;;;5011489;28;20240;-75
2021/01/09 11:36:52;;;;;;;4.97;1.00;;;6.10;99.90;;;;;;5012313;28;20665;-77
2021/01/09 11:39:18;;;;;;;3.47;0.80;;;6.20;99.90;;;;;;5009287;28;20279;-77
2021/01/09 11:41:46;;;;;;;8.90;1.30;;;6.20;99.90;;;;;;5010011;28;20211;-78
2021/01/09 11:44:12;;;;;;;4.65;0.93;;;6.30;99.90;;;;;;5008466;28;20213;-77
2021/01/09 11:46:41;;;;;;;6.25;1.00;;;6.30;99.90;;;;;;5010900;28;20235;-77
2021/01/09 11:49:07;;;;;;;4.22;1.02;;;6.40;99.90;;;;;;5011179;28;20315;-76
2021/01/09 11:51:34;;;;;;;7.78;0.90;;;6.40;99.90;;;;;;5013508;28;20275;-76
2021/01/09 11:54:01;;;;;;;4.10;0.80;;;6.40;99.90;;;;;;5010638;28;20277;-76
2021/01/09 11:56:27;;;;;;;5.05;1.33;;;6.40;99.90;;;;;;5012972;28;20196;-76
2021/01/09 11:58:54;;;;;;;6.15;1.30;;;6.40;99.90;;;;;;5010749;28;20204;-76
2021/01/09 12:01:21;;;;;;;8.80;2.30;;;6.40;99.90;;;;;;5011473;28;20675;-77
2021/01/09 12:03:47;;;;;;;7.10;1.02;;;6.50;99.90;;;;;;5009499;28;20196;-76
2021/01/09 12:06:17;;;;;;;13.13;1.38;;;6.50;99.90;;;;;;5011649;28;20205;-76
2021/01/09 12:08:44;;;;;;;12.80;1.35;;;6.50;99.90;;;;;;5023058;28;20217;-75
2021/01/09 12:11:12;;;;;;;6.63;1.40;;;6.50;99.90;;;;;;5010193;28;20215;-77
2021/01/09 12:13:39;;;;;;;7.32;1.30;;;6.50;99.90;;;;;;5010541;28;20577;-76
2021/01/09 12:16:07;;;;;;;5.72;1.17;;;6.50;99.90;;;;;;5011410;28;20238;-76
2021/01/09 12:18:33;;;;;;;5.95;1.23;;;6.50;99.90;;;;;;5009855;28;20303;-76
2021/01/09 12:21:00;;;;;;;7.70;1.30;;;6.60;99.90;;;;;;5011049;28;20205;-76
2021/01/09 12:23:27;;;;;;;8.88;1.38;;;6.60;99.90;;;;;;5009714;28;20218;-77
2021/01/09 12:25:54;;;;;;;7.85;1.05;;;6.70;99.90;;;;;;5010650;28;20215;-76
2021/01/09 12:28:20;;;;;;;5.25;1.15;;;6.70;99.90;;;;;;5011392;28;20282;-76
2021/01/09 12:30:48;;;;;;;5.43;1.10;;;6.80;99.90;;;;;;5010756;28;20196;-75
2021/01/09 12:33:16;;;;;;;5.45;1.00;;;6.90;99.90;;;;;;5009284;28;20204;-77
2021/01/09 12:35:42;;;;;;;7.60;1.10;;;7.00;99.90;;;;;;5009367;28;20239;-76
2021/01/09 12:38:09;;;;;;;4.35;1.02;;;7.00;99.90;;;;;;5010591;28;20207;-77
2021/01/09 12:40:35;;;;;;;6.78;1.15;;;7.10;99.90;;;;;;5012198;28;20208;-75
2021/01/09 12:43:02;;;;;;;2.22;1.10;;;7.00;99.90;;;;;;5010539;28;20201;-75
2021/01/09 12:45:29;;;;;;;6.00;1.13;;;7.00;99.90;;;;;;5010936;28;20209;-76
2021/01/09 12:47:55;;;;;;;5.95;1.17;;;7.00;99.90;;;;;;5009320;28;20221;-75
2021/01/09 12:50:22;;;;;;;4.38;1.02;;;7.00;99.90;;;;;;5010799;28;20201;-78
2021/01/09 12:52:48;;;;;;;2.97;0.90;;;6.90;99.90;;;;;;5010027;28;20204;-77
2021/01/09 12:55:15;;;;;;;7.53;1.10;;;6.90;99.90;;;;;;5010480;28;20258;-77